createdAt,value
2023-01-19T00:00:33.442Z,15.20
2023-01-19T00:03:00.231Z,13.52
2023-01-19T00:05:26.991Z,14.10
2023-01-19T00:07:53.797Z,18.00
2023-01-19T00:10:20.670Z,13.32
2023-01-19T00:12:47.360Z,13.15
2023-01-19T00:15:14.094Z,12.18
2023-01-19T00:17:41.148Z,13.95
2023-01-19T00:20:09.699Z,13.32
2023-01-19T00:22:36.677Z,13.82
2023-01-19T00:25:03.878Z,14.60
2023-01-19T00:27:34.841Z,12.38
2023-01-19T00:30:02.021Z,12.40
2023-01-19T00:32:28.736Z,14.88
2023-01-19T00:34:55.740Z,12.65
2023-01-19T00:37:22.439Z,15.55
2023-01-19T00:39:49.261Z,11.35
2023-01-19T00:42:34.699Z,15.13
2023-01-19T00:45:01.528Z,11.43
2023-01-19T00:47:28.246Z,14.68
2023-01-19T00:49:55.870Z,14.82
2023-01-19T00:52:22.926Z,13.45
2023-01-19T00:54:49.733Z,15.05
2023-01-19T00:57:17.152Z,12.93
2023-01-19T00:59:43.920Z,12.70
2023-01-19T01:02:11.559Z,12.95
2023-01-19T01:04:38.437Z,12.52
2023-01-19T01:07:05.173Z,13.68
2023-01-19T01:09:32.431Z,12.07
2023-01-19T01:11:59.572Z,12.57
2023-01-19T01:14:26.830Z,10.98
2023-01-19T01:16:55.858Z,13.55
2023-01-19T01:19:22.628Z,11.13
2023-01-19T01:21:49.507Z,16.75
2023-01-19T01:24:16.295Z,12.48
2023-01-19T01:26:43.081Z,13.88
2023-01-19T01:29:10.012Z,12.55
2023-01-19T01:31:36.830Z,13.00
2023-01-19T01:34:03.728Z,11.93
2023-01-19T01:36:33.233Z,12.02
2023-01-19T01:39:00.612Z,12.02
2023-01-19T01:41:27.502Z,13.07
2023-01-19T01:43:58.861Z,10.73
2023-01-19T01:46:27.088Z,10.48
2023-01-19T01:48:56.572Z,11.02
2023-01-19T01:51:30.453Z,11.63
2023-01-19T01:54:21.611Z,15.20
2023-01-19T01:56:51.806Z,11.65
2023-01-19T01:59:39.169Z,10.50
2023-01-19T02:02:29.953Z,10.45
2023-01-19T02:05:04.112Z,10.23
2023-01-19T02:08:04.718Z,11.27
2023-01-19T02:10:51.130Z,11.35
2023-01-19T02:13:21.754Z,11.60
2023-01-19T02:15:55.056Z,13.00
2023-01-19T02:18:24.597Z,11.40
2023-01-19T02:21:14.235Z,8.88
2023-01-19T02:23:58.631Z,11.75
2023-01-19T02:26:29.536Z,11.30
2023-01-19T02:28:59.784Z,8.35
2023-01-19T02:31:28.787Z,10.25
2023-01-19T02:33:56.667Z,11.70
2023-01-19T02:36:27.099Z,10.85
2023-01-19T02:38:56.874Z,11.05
2023-01-19T02:41:29.861Z,12.15
2023-01-19T02:43:58.548Z,8.35
2023-01-19T02:46:25.772Z,10.18
2023-01-19T02:48:52.466Z,11.40
2023-01-19T02:51:24.661Z,11.07
2023-01-19T02:54:25.409Z,11.18
2023-01-19T02:57:02.793Z,10.88
2023-01-19T02:59:48.639Z,12.50
2023-01-19T03:02:39.673Z,10.13
2023-01-19T03:05:30.249Z,8.33
2023-01-19T03:08:15.902Z,11.48
2023-01-19T03:11:06.154Z,9.30
2023-01-19T03:13:45.595Z,8.63
2023-01-19T03:16:28.074Z,10.85
2023-01-19T03:19:20.157Z,9.70
2023-01-19T03:21:50.557Z,8.98
2023-01-19T03:24:19.857Z,9.38
2023-01-19T03:26:52.151Z,10.77
2023-01-19T03:29:22.698Z,10.90
2023-01-19T03:31:52.011Z,8.98
2023-01-19T03:34:22.805Z,9.88
2023-01-19T03:36:54.031Z,12.25
2023-01-19T03:39:25.686Z,8.63
2023-01-19T03:41:59.765Z,10.27
2023-01-19T03:44:28.371Z,10.73
2023-01-19T03:46:56.773Z,10.55
2023-01-19T03:49:23.679Z,11.02
2023-01-19T03:51:50.496Z,10.82
2023-01-19T03:54:17.602Z,10.23
2023-01-19T03:56:44.632Z,10.90
2023-01-19T03:59:11.363Z,12.95
2023-01-19T04:01:38.139Z,9.57
2023-01-19T04:04:04.954Z,10.57
2023-01-19T04:06:32.104Z,9.70
2023-01-19T04:08:59.017Z,11.15
2023-01-19T04:11:25.767Z,11.60
2023-01-19T04:13:52.445Z,12.63
2023-01-19T04:16:21.143Z,10.65
2023-01-19T04:18:48.607Z,11.18
2023-01-19T04:21:16.186Z,10.45
2023-01-19T04:23:44.323Z,10.55
2023-01-19T04:26:11.037Z,10.73
2023-01-19T04:28:38.008Z,12.75
2023-01-19T04:31:06.404Z,9.75
2023-01-19T04:33:33.655Z,10.18
2023-01-19T04:36:00.893Z,10.82
2023-01-19T04:38:27.791Z,13.65
2023-01-19T04:40:54.931Z,10.35
2023-01-19T04:43:23.434Z,9.15
2023-01-19T04:45:50.845Z,9.57
2023-01-19T04:48:18.982Z,12.85
2023-01-19T04:50:46.244Z,9.93
2023-01-19T04:53:13.983Z,10.80
2023-01-19T04:55:41.349Z,10.93
2023-01-19T04:58:08.612Z,9.27
2023-01-19T05:00:35.978Z,9.27
2023-01-19T05:03:03.117Z,13.27
2023-01-19T05:05:30.766Z,11.38
2023-01-19T05:07:57.440Z,12.73
2023-01-19T05:10:24.269Z,10.63
2023-01-19T05:12:51.358Z,15.35
2023-01-19T05:15:18.216Z,13.10
2023-01-19T05:17:45.211Z,10.80
2023-01-19T05:20:15.069Z,12.38
2023-01-19T05:22:43.484Z,12.60
2023-01-19T05:25:10.287Z,10.48
2023-01-19T05:27:38.580Z,12.27
2023-01-19T05:30:06.328Z,8.45
2023-01-19T05:32:33.048Z,9.52
2023-01-19T05:34:59.927Z,10.82
2023-01-19T05:37:26.682Z,12.68
2023-01-19T05:39:54.732Z,12.75
2023-01-19T05:42:21.552Z,14.00
2023-01-19T05:44:48.478Z,15.07
2023-01-19T05:47:15.444Z,9.70
2023-01-19T05:49:42.197Z,11.23
2023-01-19T05:52:08.979Z,9.20
2023-01-19T05:54:35.795Z,14.15
2023-01-19T05:57:03.558Z,9.75
2023-01-19T05:59:30.268Z,11.57
2023-01-19T06:01:57.352Z,10.27
2023-01-19T06:04:24.486Z,10.23
2023-01-19T06:06:51.902Z,10.90
2023-01-19T06:09:19.265Z,9.57
2023-01-19T06:11:46.671Z,10.50
2023-01-19T06:14:13.649Z,11.13
2023-01-19T06:16:40.851Z,8.45
2023-01-19T06:19:07.753Z,9.50
2023-01-19T06:21:34.976Z,10.55
2023-01-19T06:24:01.898Z,10.60
2023-01-19T06:26:28.648Z,11.05
2023-01-19T06:28:56.255Z,12.85
2023-01-19T06:31:23.237Z,12.20
2023-01-19T06:33:50.093Z,12.35
2023-01-19T06:36:16.773Z,11.77
2023-01-19T06:38:43.885Z,9.80
2023-01-19T06:41:10.706Z,12.15
2023-01-19T06:43:37.387Z,11.80
2023-01-19T06:46:04.794Z,10.63
2023-01-19T06:48:31.570Z,10.35
2023-01-19T06:50:59.733Z,9.05
2023-01-19T06:53:28.395Z,12.98
2023-01-19T06:56:00.079Z,9.27
2023-01-19T06:58:28.238Z,10.05
2023-01-19T07:00:55.175Z,13.10
2023-01-19T07:03:23.408Z,11.18
2023-01-19T07:05:53.650Z,11.57
2023-01-19T07:08:20.738Z,10.63
2023-01-19T07:11:26.479Z,10.77
2023-01-19T07:13:35.878Z,12.40
2023-01-19T07:16:08.178Z,10.98
2023-01-19T07:18:36.387Z,9.18
2023-01-19T07:21:03.968Z,10.60
2023-01-19T07:23:30.840Z,12.48
2023-01-19T07:25:58.987Z,11.93
2023-01-19T07:28:26.192Z,10.23
2023-01-19T07:30:53.937Z,10.70
2023-01-19T07:33:22.084Z,9.88
2023-01-19T07:35:50.140Z,8.00
2023-01-19T07:38:18.787Z,10.18
2023-01-19T07:40:48.571Z,11.50
2023-01-19T07:43:15.944Z,12.05
2023-01-19T07:45:43.537Z,10.63
2023-01-19T07:48:10.434Z,11.20
2023-01-19T07:50:37.775Z,9.73
2023-01-19T07:53:09.103Z,9.68
2023-01-19T07:55:36.220Z,9.65
2023-01-19T07:58:06.566Z,10.48
2023-01-19T08:00:35.442Z,8.32
2023-01-19T08:03:03.561Z,9.57
2023-01-19T08:05:31.558Z,7.38
2023-01-19T08:07:59.077Z,8.52
2023-01-19T08:10:27.792Z,8.88
2023-01-19T08:12:55.848Z,10.10
2023-01-19T08:15:24.624Z,8.02
2023-01-19T08:17:59.943Z,8.45
2023-01-19T08:20:27.893Z,9.55
2023-01-19T08:23:00.130Z,9.32
2023-01-19T08:25:36.605Z,8.95
2023-01-19T08:28:04.488Z,8.93
2023-01-19T08:30:31.980Z,9.68
2023-01-19T08:33:04.230Z,7.75
2023-01-19T08:35:32.457Z,8.85
2023-01-19T08:38:01.420Z,7.47
2023-01-19T08:40:29.695Z,8.50
2023-01-19T08:43:03.555Z,5.93
2023-01-19T08:45:33.574Z,8.45
2023-01-19T08:48:00.922Z,8.18
2023-01-19T08:50:32.684Z,6.63
2023-01-19T08:53:01.622Z,7.45
2023-01-19T08:55:29.391Z,8.48
2023-01-19T08:57:58.013Z,8.07
2023-01-19T09:00:25.431Z,8.55
2023-01-19T09:02:52.136Z,6.88
2023-01-19T09:05:19.604Z,7.10
2023-01-19T09:07:48.062Z,9.57
2023-01-19T09:10:16.082Z,5.88
2023-01-19T09:12:44.782Z,7.47
2023-01-19T09:15:13.809Z,8.30
2023-01-19T09:17:43.565Z,7.78
2023-01-19T09:20:10.912Z,8.77
2023-01-19T09:22:39.533Z,8.43
2023-01-19T09:25:07.767Z,8.38
2023-01-19T09:27:35.563Z,7.95
2023-01-19T09:30:04.238Z,9.02
2023-01-19T09:32:30.969Z,9.95
2023-01-19T09:34:57.714Z,8.10
2023-01-19T09:37:24.459Z,8.30
2023-01-19T09:39:51.239Z,9.50
2023-01-19T09:42:29.628Z,9.95
2023-01-19T09:44:56.317Z,9.85
2023-01-19T09:47:29.489Z,7.75
2023-01-19T09:50:04.159Z,9.18
2023-01-19T09:52:35.956Z,8.10
2023-01-19T09:55:02.695Z,7.95
2023-01-19T09:57:35.901Z,9.07
2023-01-19T10:00:11.169Z,9.98
2023-01-19T10:02:44.350Z,10.25
2023-01-19T10:05:31.856Z,9.30
2023-01-19T10:08:13.764Z,8.70
2023-01-19T10:10:45.530Z,8.75
2023-01-19T10:13:34.042Z,8.13
2023-01-19T10:16:25.137Z,9.80
2023-01-19T10:18:57.451Z,10.48
2023-01-19T10:21:33.462Z,7.93
2023-01-19T10:24:18.119Z,8.65
2023-01-19T10:26:53.187Z,9.90
2023-01-19T10:29:36.270Z,9.27
2023-01-19T10:32:13.717Z,8.10
2023-01-19T10:34:41.645Z,8.95
2023-01-19T10:37:17.267Z,8.25
2023-01-19T10:39:53.936Z,8.45
2023-01-19T10:42:20.868Z,9.20
2023-01-19T10:44:48.964Z,7.40
2023-01-19T10:47:20.833Z,7.85
2023-01-19T10:49:48.942Z,7.60
2023-01-19T10:52:21.052Z,11.02
2023-01-19T10:54:48.553Z,8.50
2023-01-19T10:57:27.962Z,8.23
2023-01-19T10:59:54.709Z,8.43
2023-01-19T11:02:28.907Z,9.07
2023-01-19T11:04:58.667Z,8.32
2023-01-19T11:07:33.469Z,8.63
2023-01-19T11:10:24.057Z,7.53
2023-01-19T11:12:56.288Z,6.53
2023-01-19T11:15:30.577Z,6.60
2023-01-19T11:17:57.993Z,7.50
2023-01-19T11:20:29.049Z,6.95
2023-01-19T11:23:26.721Z,7.28
2023-01-19T11:25:58.761Z,6.75
2023-01-19T11:28:34.938Z,7.32
2023-01-19T11:31:02.788Z,6.93
2023-01-19T11:33:41.629Z,6.50
2023-01-19T11:36:23.191Z,7.22
2023-01-19T11:38:55.879Z,6.38
2023-01-19T11:41:35.512Z,7.82
2023-01-19T11:44:24.338Z,8.40
2023-01-19T11:46:55.720Z,7.07
2023-01-19T11:49:46.641Z,9.70
2023-01-19T11:52:42.318Z,8.50
2023-01-19T11:55:18.488Z,6.95
2023-01-19T11:57:51.959Z,7.90
2023-01-19T12:00:25.323Z,9.02
2023-01-19T12:03:05.109Z,6.93
2023-01-19T12:05:34.287Z,8.63
2023-01-19T12:08:07.024Z,7.07
2023-01-19T12:10:41.506Z,7.15
2023-01-19T12:13:23.811Z,8.80
2023-01-19T12:16:04.950Z,8.43
2023-01-19T12:18:45.967Z,7.10
2023-01-19T12:21:12.736Z,6.38
2023-01-19T12:23:59.497Z,8.25
2023-01-19T12:26:38.234Z,8.05
2023-01-19T12:29:06.743Z,9.35
2023-01-19T12:31:33.752Z,6.63
2023-01-19T12:34:31.202Z,8.15
2023-01-19T12:37:06.583Z,7.78
2023-01-19T12:39:35.831Z,8.20
2023-01-19T12:42:07.605Z,7.70
2023-01-19T12:44:34.739Z,7.53
2023-01-19T12:47:20.061Z,7.25
2023-01-19T12:49:50.891Z,8.27
2023-01-19T12:52:41.020Z,7.47
2023-01-19T12:55:14.016Z,8.48
2023-01-19T12:57:49.393Z,6.85
2023-01-19T13:00:21.862Z,5.28
2023-01-19T13:02:52.732Z,7.85
2023-01-19T13:05:24.408Z,7.95
2023-01-19T13:10:54.692Z,7.45
2023-01-19T13:13:24.821Z,10.32
2023-01-19T13:15:55.605Z,6.75
2023-01-19T13:18:25.053Z,8.60
2023-01-19T13:21:05.816Z,7.95
2023-01-19T13:23:49.721Z,5.40
2023-01-19T13:26:24.731Z,8.20
2023-01-19T13:28:57.418Z,8.00
2023-01-19T13:31:25.529Z,6.60
2023-01-19T13:33:55.745Z,6.13
2023-01-19T13:36:28.816Z,6.45
2023-01-19T13:38:58.747Z,7.60
2023-01-19T13:41:30.560Z,7.30
2023-01-19T13:44:02.008Z,5.55
2023-01-19T13:46:30.360Z,5.18
2023-01-19T13:49:12.977Z,7.70
2023-01-19T13:51:39.811Z,6.68
2023-01-19T13:54:16.841Z,5.45
2023-01-19T13:56:52.326Z,8.63
2023-01-19T13:59:19.158Z,5.13
2023-01-19T14:01:47.288Z,4.50
2023-01-19T14:04:29.572Z,7.80
2023-01-19T14:07:03.777Z,7.55
2023-01-19T14:09:30.644Z,6.53
2023-01-19T14:12:13.983Z,7.28
2023-01-19T14:14:43.215Z,7.25
2023-01-19T14:17:36.617Z,4.40
2023-01-19T14:20:05.423Z,7.88
2023-01-19T14:22:43.656Z,4.85
2023-01-19T14:25:36.306Z,6.38
2023-01-19T14:28:40.775Z,4.85
2023-01-19T14:31:22.374Z,5.22
2023-01-19T14:33:54.479Z,5.60
2023-01-19T14:36:28.161Z,4.63
2023-01-19T14:38:57.983Z,6.53
2023-01-19T14:41:38.621Z,4.68
2023-01-19T14:44:17.306Z,5.28
2023-01-19T14:46:48.518Z,4.18
2023-01-19T14:49:27.995Z,5.63
2023-01-19T14:51:55.946Z,4.40
2023-01-19T14:54:31.282Z,3.90
2023-01-19T14:56:58.104Z,5.13
2023-01-19T14:59:25.067Z,4.07
2023-01-19T15:01:51.982Z,6.00
2023-01-19T15:04:18.786Z,5.07
2023-01-19T15:06:45.816Z,4.90
2023-01-19T15:09:14.341Z,3.92
2023-01-19T15:11:41.877Z,3.83
2023-01-19T15:14:13.601Z,4.28
2023-01-19T15:16:41.249Z,3.72
2023-01-19T15:19:12.973Z,2.97
2023-01-19T15:21:42.090Z,4.43
2023-01-19T15:24:10.533Z,3.70
2023-01-19T15:26:39.410Z,4.95
2023-01-19T15:29:26.543Z,4.22
2023-01-19T15:31:53.416Z,4.85
2023-01-19T15:34:20.236Z,4.78
2023-01-19T15:36:46.938Z,4.00
2023-01-19T15:39:13.616Z,3.67
2023-01-19T15:41:40.516Z,3.45
2023-01-19T15:44:10.618Z,3.25
2023-01-19T15:46:37.945Z,3.25
2023-01-19T15:49:07.991Z,3.70
2023-01-19T15:51:34.703Z,3.53
2023-01-19T15:54:01.437Z,2.15
2023-01-19T15:56:30.365Z,3.55
2023-01-19T15:58:58.407Z,3.63
2023-01-19T16:01:32.175Z,2.65
2023-01-19T16:04:01.206Z,2.95
2023-01-19T16:06:29.181Z,3.30
2023-01-19T16:08:59.698Z,2.95
2023-01-19T16:11:37.704Z,3.88
2023-01-19T16:14:04.496Z,3.50
2023-01-19T16:16:31.296Z,4.35
2023-01-19T16:18:58.111Z,4.20
2023-01-19T16:21:25.254Z,2.83
2023-01-19T16:23:52.917Z,3.55
2023-01-19T16:26:32.499Z,5.40
2023-01-19T16:29:01.291Z,3.83
2023-01-19T16:31:29.080Z,3.60
2023-01-19T16:33:55.919Z,2.97
2023-01-19T16:36:31.441Z,3.60
2023-01-19T16:39:00.097Z,5.25
2023-01-19T16:41:27.309Z,8.50
2023-01-19T16:43:55.695Z,5.05
2023-01-19T16:46:25.495Z,6.63
2023-01-19T16:48:52.946Z,5.38
2023-01-19T16:51:20.379Z,5.97
2023-01-19T16:53:50.108Z,4.65
2023-01-19T16:56:17.372Z,6.35
2023-01-19T16:58:44.370Z,7.00
2023-01-19T17:01:18.372Z,7.97
2023-01-19T17:03:46.696Z,5.65
2023-01-19T17:06:17.936Z,6.50
2023-01-19T17:08:44.819Z,6.43
2023-01-19T17:11:19.328Z,5.40
2023-01-19T17:13:47.221Z,8.95
2023-01-19T17:16:13.958Z,7.50
2023-01-19T17:18:40.805Z,6.22
2023-01-19T17:21:09.886Z,6.95
2023-01-19T17:23:37.662Z,6.90
2023-01-19T17:26:05.002Z,6.20
2023-01-19T17:28:31.704Z,7.72
2023-01-19T17:31:08.154Z,8.05
2023-01-19T17:33:35.099Z,7.82
2023-01-19T17:36:07.218Z,7.35
2023-01-19T17:38:34.761Z,8.07
2023-01-19T17:41:01.576Z,8.48
2023-01-19T17:43:28.316Z,8.30
2023-01-19T17:45:55.012Z,8.52
2023-01-19T17:48:21.762Z,7.25
2023-01-19T17:50:48.476Z,8.23
2023-01-19T17:53:15.375Z,7.18
2023-01-19T17:55:42.189Z,9.90
2023-01-19T17:58:08.893Z,7.65
2023-01-19T18:00:35.804Z,7.10
2023-01-19T18:03:02.576Z,9.60
2023-01-19T18:05:29.296Z,8.68
2023-01-19T18:07:56.153Z,7.40
2023-01-19T18:10:22.895Z,8.23
2023-01-19T18:12:49.601Z,6.97
2023-01-19T18:15:17.077Z,7.15
2023-01-19T18:17:43.971Z,10.80
2023-01-19T18:20:11.478Z,7.53
2023-01-19T18:22:38.424Z,9.15
2023-01-19T18:25:07.537Z,7.63
2023-01-19T18:27:34.209Z,9.02
2023-01-19T18:30:00.932Z,7.22
2023-01-19T18:32:27.686Z,8.93
2023-01-19T18:34:54.482Z,8.07
2023-01-19T18:37:21.260Z,8.25
2023-01-19T18:39:47.991Z,6.80
2023-01-19T18:42:14.783Z,7.75
2023-01-19T18:44:41.556Z,7.45
2023-01-19T18:47:08.336Z,7.93
2023-01-19T18:49:35.031Z,6.95
2023-01-19T18:52:03.736Z,8.15
2023-01-19T18:54:30.840Z,8.25
2023-01-19T18:56:58.277Z,9.10
2023-01-19T18:59:25.047Z,6.88
2023-01-19T19:01:51.897Z,8.80
2023-01-19T19:04:19.048Z,5.70
2023-01-19T19:06:45.704Z,7.15
2023-01-19T19:09:12.528Z,7.85
2023-01-19T19:11:40.122Z,7.35
2023-01-19T19:14:07.347Z,7.68
2023-01-19T19:16:36.250Z,8.13
2023-01-19T19:19:04.313Z,7.03
2023-01-19T19:21:31.111Z,8.73
2023-01-19T19:23:58.249Z,9.93
2023-01-19T19:26:26.181Z,7.65
2023-01-19T19:28:52.888Z,9.15
2023-01-19T19:31:21.551Z,6.72
2023-01-19T19:33:50.943Z,9.55
2023-01-19T19:36:18.366Z,8.07
2023-01-19T19:38:47.433Z,12.82
2023-01-19T19:41:18.296Z,9.68
2023-01-19T19:43:45.033Z,9.50
2023-01-19T19:46:13.838Z,9.07
2023-01-19T19:48:41.180Z,9.15
2023-01-19T19:51:17.989Z,8.18
2023-01-19T19:53:46.491Z,9.55
2023-01-19T19:56:13.730Z,8.73
2023-01-19T19:58:42.118Z,9.70
2023-01-19T20:01:18.586Z,7.65
2023-01-19T20:03:45.654Z,8.25
2023-01-19T20:06:15.739Z,7.97
2023-01-19T20:08:44.475Z,9.32
2023-01-19T20:11:14.643Z,9.63
2023-01-19T20:13:43.074Z,7.88
2023-01-19T20:16:12.634Z,9.63
2023-01-19T20:18:40.653Z,7.75
2023-01-19T20:21:12.725Z,10.15
2023-01-19T20:23:40.462Z,11.70
2023-01-19T20:26:08.837Z,8.73
2023-01-19T20:28:36.942Z,8.85
2023-01-19T20:31:12.759Z,7.93
2023-01-19T20:33:40.022Z,10.38
2023-01-19T20:36:07.919Z,9.73
2023-01-19T20:38:34.785Z,7.47
2023-01-19T20:41:01.488Z,9.23
2023-01-19T20:43:29.189Z,8.82
2023-01-19T20:45:56.287Z,7.65
2023-01-19T20:48:23.054Z,7.63
2023-01-19T20:50:50.264Z,10.10
2023-01-19T20:53:17.003Z,9.75
2023-01-19T20:55:43.942Z,10.05
2023-01-19T20:58:10.608Z,10.13
2023-01-19T21:00:38.404Z,8.38
2023-01-19T21:03:05.749Z,9.18
2023-01-19T21:05:32.665Z,9.10
2023-01-19T21:07:59.541Z,8.05
2023-01-19T21:10:26.501Z,7.72
2023-01-19T21:12:53.374Z,8.65
2023-01-19T21:15:20.351Z,8.50
2023-01-19T21:17:47.092Z,9.38
2023-01-19T21:20:14.731Z,8.88
2023-01-19T21:22:41.437Z,10.63
2023-01-19T21:25:09.060Z,10.68
2023-01-19T21:27:35.869Z,8.52
2023-01-19T21:30:02.666Z,9.25
2023-01-19T21:32:29.699Z,9.38
2023-01-19T21:34:56.437Z,8.80
2023-01-19T21:37:23.434Z,13.43
2023-01-19T21:39:50.166Z,13.50
2023-01-19T21:42:16.884Z,9.75
2023-01-19T21:44:43.768Z,9.45
2023-01-19T21:47:11.844Z,9.80
2023-01-19T21:49:38.811Z,11.18
2023-01-19T21:52:05.804Z,9.63
2023-01-19T21:54:32.491Z,9.55
2023-01-19T21:57:01.078Z,10.05
2023-01-19T21:59:28.169Z,8.70
2023-01-19T22:01:55.766Z,9.38
2023-01-19T22:04:22.505Z,9.05
2023-01-19T22:06:49.266Z,8.80
2023-01-19T22:09:16.014Z,8.02
2023-01-19T22:11:42.754Z,7.45
2023-01-19T22:14:11.517Z,10.27
2023-01-19T22:16:38.284Z,8.50
2023-01-19T22:19:07.349Z,7.85
2023-01-19T22:21:35.967Z,10.80
2023-01-19T22:24:04.735Z,8.15
2023-01-19T22:26:34.090Z,10.05
2023-01-19T22:29:02.161Z,8.02
2023-01-19T22:31:30.381Z,11.50
2023-01-19T22:33:57.779Z,10.10
2023-01-19T22:36:27.414Z,9.77
2023-01-19T22:38:59.570Z,9.98
2023-01-19T22:41:28.792Z,8.13
2023-01-19T22:43:57.531Z,8.15
2023-01-19T22:46:26.814Z,8.38
2023-01-19T22:48:54.614Z,8.60
2023-01-19T22:51:22.788Z,7.72
2023-01-19T22:53:49.895Z,8.93
2023-01-19T22:56:21.843Z,9.63
2023-01-19T22:58:49.386Z,8.90
2023-01-19T23:01:19.774Z,9.65
2023-01-19T23:03:46.972Z,10.38
2023-01-19T23:06:18.979Z,8.40
2023-01-19T23:08:45.905Z,12.40
2023-01-19T23:11:18.236Z,9.77
2023-01-19T23:13:46.253Z,8.23
2023-01-19T23:16:14.100Z,8.18
2023-01-19T23:18:42.038Z,11.57
2023-01-19T23:21:11.706Z,9.75
2023-01-19T23:23:38.930Z,8.27
2023-01-19T23:26:14.393Z,12.63
2023-01-19T23:28:41.658Z,11.73
2023-01-19T23:31:22.395Z,15.05
2023-01-19T23:33:54.490Z,9.85
2023-01-19T23:36:23.317Z,8.40
2023-01-19T23:38:54.832Z,10.38
2023-01-19T23:41:22.885Z,9.57
2023-01-19T23:43:50.467Z,10.60
2023-01-19T23:46:20.163Z,10.90
2023-01-19T23:48:47.521Z,10.70
2023-01-19T23:51:17.533Z,10.52
2023-01-19T23:53:44.797Z,11.85
2023-01-19T23:56:22.026Z,14.02
2023-01-19T23:58:57.326Z,11.45
